Terminal Aerodrome Forecast
Issued by NWS

Home | Current Version | Previous Version | Text Only | Print | Product List | Glossary On
Versions: 1 2 3 4 5 6 7 8 9 10 11 12 13 14
922
FTUS46 KSEW 060520
TAFBFI
TAF
KBFI 060520Z 0606/0706 19014G24KT 6SM -SHRA BR SCT018 BKN028 OVC040
     FM060800 17010KT P6SM VCSH SCT030 BKN080
     FM061400 17007KT P6SM VCSH SCT030 BKN050 OVC100
     FM070100 11004KT P6SM SCT030 BKN050 OVC100=

USA.gov is the U.S. government's official web portal to all federal, state and local government web resources and services.